Time;durP1;ratioP1;P1;durP2;ratioP2;P2;SDS_P1;SDS_P2;PMS_P1;PMS_P2;Temp;Humidity;BMP_temperature;BMP_pressure;BME280_temperature;BME280_humidity;BME280_pressure;Samples;Min_cycle;Max_cycle;Signal;HPM_P1;HPM_P2
2021/12/17 00:04:25;;;;;;;4.88;2.55;;;;;;;5.40;100.00;98661.94;5054106;28;20060;-70
2021/12/17 00:06:51;;;;;;;;;;;;;;;5.37;100.00;98661.41;5055537;28;20037;-70
2021/12/17 00:09:16;;;;;;;6.35;2.40;;;;;;;5.17;100.00;98666.16;5057400;28;20259;-71
2021/12/17 00:11:42;;;;;;;5.32;2.75;;;;;;;5.09;100.00;98663.50;5054776;28;20091;-71
2021/12/17 00:14:08;;;;;;;7.60;3.05;;;;;;;5.09;100.00;98659.00;5058150;28;20074;-71
2021/12/17 00:16:38;;;;;;;5.95;3.03;;;;;;;5.23;100.00;98663.72;5036416;28;20047;-72
2021/12/17 00:48:23;;;;;;;7.03;3.05;;;;;;;5.07;100.00;98642.41;5059412;28;20167;-70
2021/12/17 00:49:20;;;;;;;6.38;3.40;;;;;;;5.15;100.00;98650.41;5058845;28;20116;-70
2021/12/17 00:52:03;;;;;;;5.53;2.75;;;;;;;5.17;100.00;98653.72;5055063;28;20043;-72
2021/12/17 00:54:41;;;;;;;6.30;3.30;;;;;;;5.18;100.00;98652.72;5056735;28;20320;-70
2021/12/17 00:57:13;;;;;;;5.85;3.13;;;;;;;5.35;100.00;98652.78;5052851;28;20064;-70
2021/12/17 00:59:43;;;;;;;7.63;3.60;;;;;;;5.43;100.00;98650.97;5055797;28;20040;-71
2021/12/17 01:02:11;;;;;;;10.27;3.70;;;;;;;5.44;100.00;98651.81;5053304;28;20029;-70
2021/12/17 01:04:40;;;;;;;6.50;3.60;;;;;;;5.14;100.00;98658.53;5054255;28;20048;-71
2021/12/17 01:07:07;;;;;;;6.82;3.30;;;;;;;5.10;100.00;98660.66;5054051;28;20020;-70
2021/12/17 01:09:34;;;;;;;11.77;3.85;;;;;;;5.24;100.00;98657.41;5052741;28;20039;-70
2021/12/17 01:12:00;;;;;;;9.93;3.67;;;;;;;5.36;100.00;98654.44;5045232;28;20138;-70
2021/12/17 01:14:35;;;;;;;9.63;4.20;;;;;;;5.43;100.00;98655.44;5043715;28;20033;-72
2021/12/17 01:17:22;;;;;;;8.10;3.58;;;;;;;5.46;100.00;98660.47;5054378;28;20145;-71
2021/12/17 01:35:29;;;;;;;6.55;3.33;;;;;;;5.48;100.00;98659.28;5016244;28;20150;-70
2021/12/17 01:41:11;;;;;;;6.78;3.45;;;;;;;5.26;100.00;98662.56;5057291;28;20411;-71
2021/12/17 01:43:41;;;;;;;6.15;3.20;;;;;;;5.15;100.00;98658.38;5057411;28;20052;-70
2021/12/17 01:46:10;;;;;;;6.72;3.13;;;;;;;5.10;100.00;98650.06;5057064;28;20045;-71
2021/12/17 01:49:03;;;;;;;5.00;2.63;;;;;;;5.15;100.00;98646.94;5042557;28;20157;-72
2021/12/17 01:59:48;;;;;;;5.00;2.85;;;;;;;5.11;100.00;98643.75;5010033;28;20053;-73
2021/12/17 02:02:14;;;;;;;4.05;2.47;;;;;;;5.19;100.00;98633.16;5042505;28;20040;-70
2021/12/17 02:04:40;;;;;;;7.30;2.42;;;;;;;5.05;100.00;98641.72;5044625;28;20740;-70
2021/12/17 02:07:05;;;;;;;4.72;2.60;;;;;;;5.06;100.00;98642.56;5053889;28;20036;-72
2021/12/17 02:31:42;;;;;;;5.80;2.65;;;;;;;4.99;100.00;98622.00;5058788;28;20041;-70
2021/12/17 02:34:31;;;;;;;5.65;3.25;;;;;;;5.02;100.00;98620.84;5044575;28;20032;-70
2021/12/17 02:36:59;;;;;;;4.68;2.85;;;;;;;5.12;100.00;98610.91;5056314;28;20468;-71
2021/12/17 02:48:13;;;;;;;5.32;3.05;;;;;;;5.25;100.00;98605.16;5055720;28;20082;-70
2021/12/17 02:50:46;;;;;;;4.05;2.47;;;;;;;5.11;100.00;98609.25;5041976;28;20091;-71
2021/12/17 02:53:12;;;;;;;4.63;2.40;;;;;;;5.08;100.00;98604.28;5056428;28;20499;-70
2021/12/17 02:55:45;;;;;;;4.18;2.30;;;;;;;5.02;100.00;98611.06;5043697;28;20362;-72
2021/12/17 02:58:11;;;;;;;4.50;2.30;;;;;;;5.07;100.00;98607.09;5040595;28;20093;-71
2021/12/17 03:00:40;;;;;;;4.32;2.70;;;;;;;5.11;100.00;98611.91;5057355;28;20350;-70
2021/12/17 03:03:07;;;;;;;4.63;2.92;;;;;;;5.14;100.00;98614.25;5057606;28;20049;-71
2021/12/17 03:05:35;;;;;;;4.75;2.70;;;;;;;4.95;100.00;98619.81;5054871;28;20467;-71
2021/12/17 03:08:01;;;;;;;5.03;3.08;;;;;;;4.91;100.00;98613.19;5042713;28;20033;-71
2021/12/17 03:10:27;;;;;;;6.53;3.10;;;;;;;4.87;100.00;98615.31;5041692;28;20066;-71
2021/12/17 03:12:58;;;;;;;6.60;2.80;;;;;;;4.92;100.00;98613.00;5038259;28;20036;-74
2021/12/17 03:23:49;;;;;;;4.97;3.10;;;;;;;5.12;100.00;98616.22;5047286;28;20078;-71
2021/12/17 03:26:23;;;;;;;5.38;3.17;;;;;;;5.11;100.00;98625.16;5051667;28;20033;-71
2021/12/17 03:28:53;;;;;;;7.53;4.00;;;;;;;5.12;100.00;98621.53;5040423;28;20033;-71
2021/12/17 03:31:19;;;;;;;5.35;3.53;;;;;;;5.15;100.00;98615.91;5053773;28;20510;-71
2021/12/17 03:33:48;;;;;;;6.22;3.60;;;;;;;5.18;100.00;98614.75;5062863;28;20268;-71
2021/12/17 03:36:16;;;;;;;6.07;3.47;;;;;;;5.18;100.00;98620.06;5039496;28;20260;-71
2021/12/17 03:38:46;;;;;;;6.22;3.97;;;;;;;5.14;100.00;98613.44;5039505;28;20036;-71
2021/12/17 03:41:24;;;;;;;6.53;3.65;;;;;;;5.20;100.00;98612.75;5056370;28;20375;-71
2021/12/17 03:44:09;;;;;;;5.57;3.38;;;;;;;5.24;100.00;98614.09;5026909;28;20124;-72
2021/12/17 03:47:01;;;;;;;5.65;3.83;;;;;;;5.17;100.00;98623.69;5028319;28;20033;-71
2021/12/17 03:49:33;;;;;;;3.95;2.20;;;;;;;4.91;100.00;98623.78;5045019;28;20104;-72
2021/12/17 03:52:05;;;;;;;5.10;2.72;;;;;;;4.81;100.00;98618.59;5023545;28;20132;-72
2021/12/17 03:54:36;;;;;;;4.82;2.85;;;;;;;4.79;100.00;98609.97;5029715;28;20116;-71
2021/12/17 03:57:07;;;;;;;5.15;3.08;;;;;;;4.85;100.00;98608.50;5043103;28;20045;-71
2021/12/17 03:59:35;;;;;;;5.25;3.30;;;;;;;4.76;100.00;98610.31;5040630;28;20033;-72
2021/12/17 04:02:02;;;;;;;5.00;2.80;;;;;;;4.70;100.00;98603.81;5041733;28;20041;-71
2021/12/17 04:04:28;;;;;;;3.70;2.40;;;;;;;4.75;100.00;98603.34;5023547;28;20040;-71
2021/12/17 04:07:14;;;;;;;3.88;2.40;;;;;;;4.85;100.00;98604.03;5024666;28;20049;-71
2021/12/17 04:09:59;;;;;;;4.18;2.70;;;;;;;4.72;100.00;98598.31;5015449;28;20491;-70
2021/12/17 04:12:40;;;;;;;9.13;3.80;;;;;;;4.68;100.00;98604.97;5022218;28;20025;-71
2021/12/17 04:15:14;;;;;;;4.90;3.03;;;;;;;4.75;100.00;98604.16;5023343;28;20052;-71
2021/12/17 04:17:46;;;;;;;6.63;3.70;;;;;;;4.73;100.00;98608.78;5038082;28;20515;-71
2021/12/17 04:20:13;;;;;;;5.88;3.75;;;;;;;4.66;100.00;98607.75;5039701;28;20488;-71
2021/12/17 04:22:39;;;;;;;6.32;3.53;;;;;;;4.71;100.00;98601.97;5026598;28;20033;-71
2021/12/17 04:25:05;;;;;;;6.05;3.90;;;;;;;4.66;100.00;98599.78;5024764;28;20072;-71
2021/12/17 04:27:31;;;;;;;6.10;3.60;;;;;;;4.58;100.00;98601.56;5041225;28;20056;-73
2021/12/17 04:29:57;;;;;;;6.72;4.05;;;;;;;4.67;100.00;98595.31;5027274;28;20486;-72
2021/12/17 04:32:23;;;;;;;7.95;3.95;;;;;;;4.71;100.00;98600.16;5023072;28;20037;-71
2021/12/17 04:34:49;;;;;;;7.38;3.97;;;;;;;4.71;100.00;98610.75;5024322;28;20338;-72
2021/12/17 04:37:17;;;;;;;5.80;3.75;;;;;;;4.75;100.00;98612.13;5024924;28;20148;-71
2021/12/17 04:39:50;;;;;;;5.88;3.92;;;;;;;4.78;100.00;98612.78;5023106;28;20042;-71
2021/12/17 04:42:45;;;;;;;5.50;3.60;;;;;;;4.57;100.00;98595.44;5042568;28;20044;-71
2021/12/17 04:45:06;;;;;;;5.30;3.38;;;;;;;4.62;100.00;98600.28;5052443;28;20028;-71
2021/12/17 04:58:36;;;;;;;7.13;4.32;;;;;;;4.44;100.00;98600.38;5061783;28;20043;-71
2021/12/17 05:01:08;;;;;;;7.05;4.28;;;;;;;4.43;100.00;98610.09;5034873;28;20125;-74
2021/12/17 05:03:34;;;;;;;5.85;3.83;;;;;;;4.41;100.00;98605.97;5054625;28;20527;-72
2021/12/17 05:06:00;;;;;;;5.05;3.40;;;;;;;4.37;100.00;98605.47;5057444;28;20127;-71
2021/12/17 05:08:34;;;;;;;5.05;3.20;;;;;;;4.19;100.00;98615.25;5055797;28;20451;-71
2021/12/17 05:11:37;;;;;;;4.20;2.70;;;;;;;4.19;100.00;98607.31;5040253;28;20102;-71
2021/12/17 05:22:11;;;;;;;7.03;3.40;;;;;;;4.26;100.00;98591.63;5042058;28;20314;-71
2021/12/17 05:24:37;;;;;;;5.00;3.30;;;;;;;4.36;100.00;98589.72;5041863;28;20321;-72
2021/12/17 05:27:04;;;;;;;5.05;2.85;;;;;;;4.30;100.00;98591.16;5055198;28;20052;-71
2021/12/17 05:29:33;;;;;;;4.53;3.08;;;;;;;4.33;100.00;98587.38;5048134;28;20032;-72
2021/12/17 05:31:58;;;;;;;7.60;3.55;;;;;;;4.31;100.00;98590.19;5039895;28;20483;-71
2021/12/17 05:34:24;;;;;;;6.43;3.35;;;;;;;4.38;100.00;98583.25;5045524;28;20078;-71
2021/12/17 05:36:54;;;;;;;6.70;3.17;;;;;;;4.46;100.00;98579.81;5058725;28;20044;-71
2021/12/17 05:39:25;;;;;;;5.33;3.27;;;;;;;4.52;100.00;98588.97;5040572;28;20029;-74
2021/12/17 05:41:53;;;;;;;4.53;2.78;;;;;;;4.58;100.00;98586.50;5046510;28;20292;-74
2021/12/17 05:44:37;;;;;;;6.97;3.30;;;;;;;4.63;100.00;98581.56;5058895;28;20037;-71
2021/12/17 05:47:04;;;;;;;5.63;2.50;;;;;;;4.66;100.00;98578.56;5046194;28;20047;-72
2021/12/17 05:49:31;;;;;;;7.78;3.63;;;;;;;4.55;100.00;98591.28;5046878;28;20037;-71
2021/12/17 05:52:00;;;;;;;6.32;4.10;;;;;;;4.55;100.00;98581.53;5046770;28;20040;-71
2021/12/17 05:54:28;;;;;;;7.80;4.43;;;;;;;4.54;100.00;98593.13;5047825;28;20032;-71
2021/12/17 05:56:54;;;;;;;7.10;3.88;;;;;;;4.39;100.00;98595.53;5048165;28;20479;-71
2021/12/17 05:59:21;;;;;;;6.68;4.20;;;;;;;4.41;100.00;98600.66;5051445;28;20038;-71
2021/12/17 06:01:47;;;;;;;7.80;4.72;;;;;;;4.50;100.00;98602.38;5057380;28;20048;-71
2021/12/17 06:04:13;;;;;;;7.57;5.13;;;;;;;4.59;100.00;98603.22;5043043;28;20028;-72
2021/12/17 06:06:56;;;;;;;7.18;4.00;;;;;;;4.47;100.00;98610.66;5048000;28;20110;-71
2021/12/17 06:09:22;;;;;;;6.97;4.22;;;;;;;4.39;100.00;98613.25;5030405;28;20033;-71
2021/12/17 06:11:48;;;;;;;6.07;3.72;;;;;;;4.34;100.00;98612.88;5054832;28;20025;-73
2021/12/17 06:14:16;;;;;;;6.65;3.97;;;;;;;4.38;100.00;98614.25;5041401;28;20078;-71
2021/12/17 06:16:42;;;;;;;6.35;3.75;;;;;;;4.33;100.00;98614.69;5054954;28;20410;-71
2021/12/17 06:19:13;;;;;;;8.73;4.57;;;;;;;4.38;100.00;98617.72;5062389;28;20652;-70
2021/12/17 06:21:38;;;;;;;7.20;4.40;;;;;;;4.35;100.00;98623.31;5024745;28;20041;-72
2021/12/17 06:24:05;;;;;;;7.55;4.60;;;;;;;4.24;100.00;98630.72;5047775;28;20493;-72
2021/12/17 06:26:33;;;;;;;10.43;6.30;;;;;;;4.01;100.00;98622.44;5044712;28;20576;-71
2021/12/17 06:29:00;;;;;;;14.27;8.27;;;;;;;3.86;100.00;98620.34;5045056;28;20036;-70
2021/12/17 06:31:27;;;;;;;14.15;8.07;;;;;;;3.81;100.00;98608.53;5061303;28;20067;-73
2021/12/17 06:33:54;;;;;;;13.93;7.45;;;;;;;3.75;100.00;98594.09;5040103;28;20033;-71
2021/12/17 06:36:20;;;;;;;13.50;7.57;;;;;;;3.80;100.00;98601.56;5039286;28;20070;-71
2021/12/17 06:38:46;;;;;;;12.18;8.30;;;;;;;3.87;100.00;98597.31;5057185;28;20386;-74
2021/12/17 06:41:13;;;;;;;15.23;8.82;;;;;;;3.94;100.00;98593.06;5057743;28;20123;-71
2021/12/17 06:43:42;;;;;;;18.52;10.27;;;;;;;3.98;100.00;98586.50;5041824;28;20476;-72
2021/12/17 06:48:41;;;;;;;;;;;;;;;3.96;100.00;98580.50;5058159;28;20542;-71
2021/12/17 07:06:00;;;;;;;16.63;9.18;;;;;;;4.63;100.00;98584.22;5037577;28;20233;-71
2021/12/17 07:17:09;;;;;;;18.73;10.18;;;;;;;4.60;100.00;98581.06;5050157;28;20037;-72
2021/12/17 07:17:36;;;;;;;15.68;9.55;;;;;;;4.59;100.00;98577.56;5057789;28;20037;-71
2021/12/17 07:20:50;;;;;;;17.88;9.90;;;;;;;4.45;100.00;98572.88;5041423;28;20048;-73
2021/12/17 07:23:04;;;;;;;21.65;11.73;;;;;;;4.49;100.00;98574.19;5041423;28;20052;-71
2021/12/17 07:30:00;;;;;;;15.57;8.75;;;;;;;4.65;100.00;98562.81;5041031;28;19960;-72
2021/12/17 07:34:07;;;;;;;16.25;9.27;;;;;;;4.73;100.00;98573.47;5016493;28;20440;-71
2021/12/17 07:39:35;;;;;;;17.23;8.52;;;;;;;4.69;100.00;98588.06;5003163;28;20060;-71
2021/12/17 07:42:18;;;;;;;21.58;11.45;;;;;;;4.55;100.00;98592.13;5053721;28;20040;-72
2021/12/17 07:44:55;;;;;;;14.48;7.47;;;;;;;4.53;100.00;98602.06;5056107;28;20559;-71
2021/12/17 07:47:47;;;;;;;18.58;7.60;;;;;;;4.53;100.00;98607.38;5035859;28;20122;-71
2021/12/17 07:50:24;;;;;;;12.75;7.15;;;;;;;4.60;100.00;98604.91;5038607;28;20051;-71
2021/12/17 07:53:13;;;;;;;19.15;8.00;;;;;;;4.69;100.00;98610.09;5038163;28;20649;-71
2021/12/17 07:55:46;;;;;;;20.40;9.27;;;;;;;4.74;100.00;98622.88;5061124;28;20037;-71
2021/12/17 07:58:18;;;;;;;21.23;9.40;;;;;;;4.85;100.00;98629.72;5040984;28;20055;-73
2021/12/17 08:00:43;;;;;;;15.57;8.20;;;;;;;4.93;100.00;98637.72;5039816;28;20066;-72
2021/12/17 08:03:11;;;;;;;12.52;6.15;;;;;;;4.89;100.00;98631.88;5036409;28;20036;-73
2021/12/17 08:05:57;;;;;;;18.02;8.40;;;;;;;4.86;100.00;98632.22;5047977;28;20048;-71
2021/12/17 08:08:24;;;;;;;10.02;4.40;;;;;;;4.87;100.00;98633.88;5017939;28;20036;-71
2021/12/17 08:11:08;;;;;;;10.80;5.03;;;;;;;4.87;100.00;98633.88;5055285;28;20041;-71
2021/12/17 08:13:36;;;;;;;17.48;8.63;;;;;;;4.94;100.00;98632.25;5037405;28;20044;-71
2021/12/17 08:16:56;;;;;;;16.13;8.75;;;;;;;4.99;100.00;98634.44;5038401;28;20498;-71
2021/12/17 08:29:54;;;;;;;12.27;6.43;;;;;;;4.85;100.00;98648.31;5059676;28;20086;-72
2021/12/17 08:32:21;;;;;;;11.20;6.13;;;;;;;4.96;100.00;98640.88;5041948;28;20602;-72
2021/12/17 08:34:51;;;;;;;20.67;7.35;;;;;;;5.08;100.00;98644.09;5035969;28;20072;-71
2021/12/17 08:37:18;;;;;;;11.70;6.53;;;;;;;5.12;100.00;98640.09;5044408;28;20051;-72
2021/12/17 08:39:46;;;;;;;13.50;6.43;;;;;;;5.09;100.00;98643.09;5040276;28;20380;-71
2021/12/17 08:42:35;;;;;;;14.07;7.68;;;;;;;5.15;100.00;98631.84;5060104;28;20040;-73
2021/12/17 08:45:06;;;;;;;12.90;6.20;;;;;;;5.17;100.00;98635.16;5043344;28;20119;-70
2021/12/17 08:47:55;;;;;;;18.38;8.52;;;;;;;5.11;100.00;98640.25;5060113;28;20032;-71
2021/12/17 08:50:43;;;;;;;13.77;7.28;;;;;;;5.20;100.00;98621.53;5056830;28;20056;-71
2021/12/17 08:53:11;;;;;;;17.00;7.97;;;;;;;5.29;100.00;98627.69;5057069;28;20544;-72
2021/12/17 08:55:37;;;;;;;16.48;8.70;;;;;;;5.14;100.00;98638.13;5057855;28;20032;-72
2021/12/17 08:58:04;;;;;;;16.40;9.25;;;;;;;5.17;100.00;98639.63;5046097;28;20088;-71
2021/12/17 09:00:30;;;;;;;21.83;11.00;;;;;;;5.13;100.00;98636.44;5047503;28;20308;-74
2021/12/17 09:02:59;;;;;;;21.35;11.43;;;;;;;5.17;100.00;98650.25;5046107;28;20063;-71
2021/12/17 09:05:46;;;;;;;24.05;11.10;;;;;;;5.17;100.00;98651.06;5047927;28;20068;-73
2021/12/17 09:08:18;;;;;;;22.48;11.18;;;;;;;5.09;100.00;98653.69;5039293;28;20039;-73
2021/12/17 09:10:52;;;;;;;23.38;12.13;;;;;;;5.15;100.00;98646.94;5031751;28;20056;-73
2021/12/17 09:13:18;;;;;;;25.02;11.30;;;;;;;5.08;100.00;98652.03;5043365;28;20140;-71
2021/12/17 09:15:46;;;;;;;19.38;10.15;;;;;;;5.12;100.00;98663.97;5041550;28;20083;-71
2021/12/17 09:18:19;;;;;;;20.98;10.52;;;;;;;5.21;100.00;98657.75;5040169;28;20476;-71
2021/12/17 09:20:51;;;;;;;23.05;9.65;;;;;;;5.32;100.00;98678.66;5040186;28;20124;-72
2021/12/17 09:23:22;;;;;;;20.23;9.70;;;;;;;5.38;100.00;98685.16;5046787;28;20531;-71
2021/12/17 09:25:48;;;;;;;14.93;8.63;;;;;;;5.43;100.00;98676.69;5039418;28;20037;-73
2021/12/17 09:28:17;;;;;;;17.95;9.25;;;;;;;5.47;100.00;98678.06;5042456;28;20032;-72
2021/12/17 09:30:58;;;;;;;17.77;10.10;;;;;;;5.47;100.00;98696.63;5040991;28;20055;-72
2021/12/17 09:33:25;;;;;;;17.33;9.40;;;;;;;5.46;100.00;98697.63;5041021;28;20472;-72
2021/12/17 09:35:51;;;;;;;20.50;9.65;;;;;;;5.38;100.00;98700.28;5042300;28;20480;-71
2021/12/17 09:38:19;;;;;;;17.08;8.32;;;;;;;5.45;100.00;98701.28;5056609;28;20038;-74
2021/12/17 09:40:44;;;;;;;13.93;7.97;;;;;;;5.44;100.00;98696.94;5059611;28;20449;-74
2021/12/17 09:43:10;;;;;;;16.25;8.20;;;;;;;5.51;100.00;98701.44;5058923;28;20040;-72
2021/12/17 09:45:37;;;;;;;14.27;8.13;;;;;;;5.37;100.00;98699.44;5058156;28;20102;-72
2021/12/17 09:48:03;;;;;;;15.63;8.45;;;;;;;5.43;100.00;98703.25;5045284;28;20032;-72
2021/12/17 09:50:29;;;;;;;17.70;8.50;;;;;;;5.40;100.00;98690.31;5057528;28;20036;-72
2021/12/17 09:52:55;;;;;;;15.27;9.15;;;;;;;5.50;100.00;98691.00;5056349;28;20037;-72
2021/12/17 09:55:20;;;;;;;18.00;9.68;;;;;;;5.63;100.00;98694.03;5041222;28;20060;-72
2021/12/17 09:57:46;;;;;;;18.40;8.70;;;;;;;5.67;100.00;98689.19;5057782;28;20252;-72
2021/12/17 10:00:19;;;;;;;19.27;9.15;;;;;;;5.63;100.00;98686.06;5058079;28;20037;-71
2021/12/17 10:02:46;;;;;;;14.57;8.27;;;;;;;5.73;100.00;98692.03;5057887;28;20059;-72
2021/12/17 10:05:14;;;;;;;16.58;9.30;;;;;;;5.75;100.00;98692.69;5058048;28;20032;-73
2021/12/17 10:07:43;;;;;;;23.23;10.63;;;;;;;5.75;100.00;98676.75;5057279;28;20052;-71
2021/12/17 10:10:09;;;;;;;19.60;10.15;;;;;;;5.75;100.00;98679.41;5058569;28;20493;-71
2021/12/17 10:12:37;;;;;;;27.42;9.65;;;;;;;5.76;100.00;98682.94;5056121;28;20514;-71
2021/12/17 10:15:07;;;;;;;29.75;10.13;;;;;;;5.78;100.00;98671.13;5059409;28;20040;-71
2021/12/17 10:17:48;;;;;;;25.20;11.40;;;;;;;5.84;100.00;98675.81;5039618;28;20052;-71
2021/12/17 10:20:14;;;;;;;19.58;9.70;;;;;;;5.67;100.00;98674.09;5056689;28;20036;-71
2021/12/17 10:22:44;;;;;;;33.83;9.77;;;;;;;5.74;100.00;98672.44;5058011;28;20028;-71
2021/12/17 10:25:10;;;;;;;18.77;8.68;;;;;;;5.76;100.00;98670.47;5055669;28;20133;-71
2021/12/17 10:27:39;;;;;;;22.75;10.02;;;;;;;5.70;100.00;98671.13;5055343;28;20032;-71
2021/12/17 10:30:10;;;;;;;16.90;9.23;;;;;;;5.69;100.00;98673.94;5058727;28;20097;-71
2021/12/17 10:32:36;;;;;;;23.45;10.02;;;;;;;5.78;100.00;98660.50;5055772;28;20503;-71
2021/12/17 10:35:13;;;;;;;21.38;9.48;;;;;;;5.79;100.00;98658.69;5057599;28;20093;-71
2021/12/17 10:37:42;;;;;;;21.60;8.85;;;;;;;5.84;100.00;98659.03;5056740;28;20341;-71
2021/12/17 10:40:21;;;;;;;19.50;9.40;;;;;;;5.73;100.00;98662.81;5059945;28;20025;-72
2021/12/17 10:43:01;;;;;;;17.20;9.32;;;;;;;5.82;100.00;98659.16;5056786;28;20048;-73
2021/12/17 10:45:30;;;;;;;19.15;8.77;;;;;;;5.91;100.00;98657.38;5036831;28;20047;-72
2021/12/17 10:48:12;;;;;;;19.13;9.38;;;;;;;5.95;100.00;98649.91;5055008;28;20028;-72
2021/12/17 10:50:38;;;;;;;21.33;9.20;;;;;;;6.00;100.00;98653.75;5056901;28;20342;-71
2021/12/17 10:53:07;;;;;;;18.35;9.75;;;;;;;5.91;100.00;98649.41;5056553;28;20095;-72
2021/12/17 10:55:32;;;;;;;23.13;8.82;;;;;;;5.75;100.00;98660.00;5056483;28;20063;-73
2021/12/17 10:58:02;;;;;;;18.88;8.63;;;;;;;5.77;100.00;98658.84;5037215;28;20127;-71
2021/12/17 11:00:27;;;;;;;19.63;8.85;;;;;;;5.76;100.00;98659.84;5055115;28;20045;-71
2021/12/17 11:02:54;;;;;;;20.27;9.40;;;;;;;5.78;100.00;98665.00;5037824;28;20029;-71
2021/12/17 11:05:22;;;;;;;23.40;9.90;;;;;;;5.73;100.00;98673.44;5059714;28;20029;-72
2021/12/17 11:07:50;;;;;;;16.00;7.72;;;;;;;5.84;100.00;98673.16;5054885;28;20123;-71
2021/12/17 11:10:23;;;;;;;22.48;8.98;;;;;;;5.92;100.00;98672.34;5055484;28;20270;-73
2021/12/17 11:12:49;;;;;;;15.90;7.35;;;;;;;5.95;100.00;98674.66;5061989;28;20468;-72
2021/12/17 11:15:27;;;;;;;16.98;8.60;;;;;;;5.92;100.00;98653.75;5058339;28;20063;-72
2021/12/17 11:17:58;;;;;;;20.75;10.10;;;;;;;5.92;100.00;98659.06;5057975;28;20230;-71
2021/12/17 11:20:26;;;;;;;;;;;;;;;5.91;100.00;98653.88;5056143;28;20039;-72
2021/12/17 11:22:53;;;;;;;15.20;8.77;;;;;;;6.05;100.00;98647.91;5045743;28;19957;-72
2021/12/17 11:25:19;;;;;;;19.60;8.45;;;;;;;6.18;100.00;98648.25;5055903;28;20040;-73
2021/12/17 11:27:45;;;;;;;16.65;7.90;;;;;;;6.24;100.00;98642.28;5053375;28;20516;-71
2021/12/17 11:30:14;;;;;;;17.75;8.82;;;;;;;6.28;100.00;98642.75;5053184;28;20087;-73
2021/12/17 11:32:45;;;;;;;19.17;8.60;;;;;;;6.30;100.00;98649.59;5056068;28;20487;-74
2021/12/17 11:35:13;;;;;;;22.55;10.55;;;;;;;6.00;100.00;98645.78;5055240;28;20047;-72
2021/12/17 11:37:42;;;;;;;22.58;9.85;;;;;;;5.96;100.00;98639.13;5055886;28;20041;-74
2021/12/17 11:40:17;;;;;;;23.95;10.48;;;;;;;6.06;100.00;98654.88;5055497;28;20310;-72
2021/12/17 11:43:00;;;;;;;21.55;10.65;;;;;;;5.97;100.00;98634.63;5054243;28;20029;-73
2021/12/17 11:45:27;;;;;;;24.35;12.10;;;;;;;6.02;100.00;98641.13;5055387;28;20020;-72
2021/12/17 11:48:09;;;;;;;49.08;12.00;;;;;;;6.02;100.00;98648.25;5055102;28;20434;-71
2021/12/17 11:50:35;;;;;;;341.33;15.98;;;;;;;6.00;100.00;98640.47;5056500;28;20021;-72
2021/12/17 11:53:23;;;;;;;102.53;13.18;;;;;;;6.01;100.00;98642.13;5055946;28;20469;-72
2021/12/17 11:55:57;;;;;;;91.93;12.52;;;;;;;6.01;100.00;98639.47;5054484;28;20076;-72
2021/12/17 11:58:51;;;;;;;29.58;10.80;;;;;;;5.98;100.00;98638.94;5055966;28;20062;-72
2021/12/17 12:02:00;;;;;;;24.02;10.73;;;;;;;6.07;100.00;98643.25;5056732;28;20127;-72
2021/12/17 12:04:31;;;;;;;24.63;10.82;;;;;;;6.05;100.00;98646.09;5055365;28;20029;-71
2021/12/17 12:07:01;;;;;;;27.75;10.77;;;;;;;6.11;100.00;98641.94;5053570;28;20052;-73
2021/12/17 12:09:58;;;;;;;24.75;10.05;;;;;;;6.13;100.00;98646.09;5053824;28;20033;-72
2021/12/17 12:12:41;;;;;;;18.45;9.77;;;;;;;6.12;100.00;98633.78;5057463;28;20077;-72
2021/12/17 12:15:24;;;;;;;26.55;9.00;;;;;;;6.12;100.00;98631.13;5054046;28;20101;-71
2021/12/17 12:18:10;;;;;;;16.90;8.60;;;;;;;6.12;100.00;98625.00;5055549;28;20048;-71
2021/12/17 12:20:45;;;;;;;13.57;7.70;;;;;;;6.14;100.00;98623.00;5053956;28;20533;-71
2021/12/17 12:23:20;;;;;;;18.15;7.95;;;;;;;6.14;100.00;98620.31;5054097;28;20045;-72
2021/12/17 12:26:11;;;;;;;16.50;7.47;;;;;;;6.10;100.00;98595.09;5054836;28;20033;-71
2021/12/17 12:28:56;;;;;;;16.63;8.52;;;;;;;6.10;100.00;98598.56;5052289;28;20522;-73
2021/12/17 12:31:25;;;;;;;17.20;7.43;;;;;;;6.16;100.00;98605.06;5054102;28;20427;-71
2021/12/17 12:34:10;;;;;;;17.83;8.52;;;;;;;6.12;100.00;98615.19;5054313;28;20037;-72
2021/12/17 12:36:50;;;;;;;14.77;7.97;;;;;;;6.12;100.00;98615.19;5035679;28;20623;-71
2021/12/17 12:39:18;;;;;;;16.60;8.03;;;;;;;6.04;100.00;98623.16;5053671;28;20109;-72
2021/12/17 12:42:14;;;;;;;21.38;9.35;;;;;;;6.01;100.00;98622.69;5057099;28;20280;-72
2021/12/17 12:44:40;;;;;;;17.33;8.70;;;;;;;5.98;100.00;98618.50;5054532;28;20033;-72
2021/12/17 12:47:06;;;;;;;13.30;6.57;;;;;;;5.89;100.00;98622.13;5055761;28;20037;-72
2021/12/17 12:50:07;;;;;;;11.13;5.07;;;;;;;5.93;100.00;98620.03;5036754;28;20079;-71
2021/12/17 12:52:32;;;;;;;7.85;4.32;;;;;;;6.01;100.00;98628.00;5053902;28;20040;-71
2021/12/17 12:55:03;;;;;;;13.70;6.97;;;;;;;6.10;100.00;98622.50;5053538;28;20044;-72
2021/12/17 12:57:30;;;;;;;13.15;6.35;;;;;;;6.11;100.00;98623.34;5054999;28;20164;-74
2021/12/17 12:59:58;;;;;;;16.08;7.28;;;;;;;6.21;100.00;98618.66;5041044;28;20049;-71
2021/12/17 13:02:25;;;;;;;12.65;6.30;;;;;;;6.29;100.00;98623.97;5056193;28;20064;-71
2021/12/17 13:04:57;;;;;;;11.52;5.43;;;;;;;6.35;100.00;98615.31;5053785;28;20040;-74
2021/12/17 13:07:35;;;;;;;13.90;5.90;;;;;;;6.49;100.00;98610.31;5055346;28;20387;-73
2021/12/17 13:10:09;;;;;;;10.30;5.07;;;;;;;6.53;100.00;98608.97;5054954;28;20039;-72
2021/12/17 13:12:35;;;;;;;8.10;4.38;;;;;;;6.41;100.00;98603.19;5053948;28;20033;-72
2021/12/17 13:21:19;;;;;;;6.70;3.35;;;;;;;6.68;100.00;98588.63;5055303;28;20041;-72
2021/12/17 13:23:51;;;;;;;8.55;2.65;;;;;;;6.58;100.00;98594.16;5057630;28;20120;-71
2021/12/17 13:26:19;;;;;;;4.93;2.55;;;;;;;6.52;100.00;98599.31;5057251;28;20032;-73
2021/12/17 13:28:59;;;;;;;8.13;3.67;;;;;;;6.51;100.00;98598.50;5058716;28;20062;-71
2021/12/17 13:31:56;;;;;;;12.23;4.20;;;;;;;6.58;100.00;98591.50;5045864;28;20136;-74
2021/12/17 13:34:56;;;;;;;6.75;3.60;;;;;;;6.58;100.00;98593.31;5046243;28;20045;-73
2021/12/17 13:37:27;;;;;;;6.80;3.63;;;;;;;6.55;100.00;98596.34;5055951;28;20039;-74
2021/12/17 13:40:08;;;;;;;6.82;3.70;;;;;;;6.57;100.00;98602.31;5041999;28;20356;-72
2021/12/17 13:42:39;;;;;;;;;;;;;;;6.43;100.00;98607.31;5058518;28;20045;-73
2021/12/17 13:45:21;;;;;;;6.75;3.40;;;;;;;6.47;100.00;98601.69;5058377;28;19923;-72
2021/12/17 13:47:53;;;;;;;9.82;4.43;;;;;;;6.51;100.00;98605.66;5056654;28;20037;-72
2021/12/17 13:50:23;;;;;;;9.43;4.43;;;;;;;6.49;100.00;98599.66;5059996;28;20036;-72
2021/12/17 13:52:52;;;;;;;12.38;5.68;;;;;;;6.49;100.00;98600.50;5057058;28;20068;-72
2021/12/17 13:55:41;;;;;;;10.90;5.97;;;;;;;6.57;100.00;98607.63;5046373;28;20472;-72
2021/12/17 13:58:15;;;;;;;11.77;5.53;;;;;;;6.58;100.00;98609.28;5048165;28;20391;-72
2021/12/17 14:00:44;;;;;;;8.70;4.75;;;;;;;6.52;100.00;98589.50;5057963;28;20430;-72
2021/12/17 14:03:13;;;;;;;9.23;4.82;;;;;;;6.20;100.00;98601.06;5055751;28;20059;-71
2021/12/17 14:05:58;;;;;;;8.50;4.18;;;;;;;6.23;100.00;98606.06;5059234;28;20135;-71
2021/12/17 14:08:23;;;;;;;10.00;5.55;;;;;;;6.19;100.00;98602.06;5039853;28;20033;-72
2021/12/17 14:10:56;;;;;;;10.95;6.05;;;;;;;6.17;100.00;98606.72;5057129;28;20174;-73
2021/12/17 14:13:24;;;;;;;8.32;4.20;;;;;;;6.26;100.00;98615.50;5057853;28;20036;-71
2021/12/17 14:15:50;;;;;;;13.40;5.95;;;;;;;6.32;100.00;98617.50;5058103;28;20045;-72
2021/12/17 14:18:19;;;;;;;11.98;5.35;;;;;;;6.37;100.00;98621.28;5058416;28;20032;-71
2021/12/17 14:20:54;;;;;;;9.30;5.13;;;;;;;6.42;100.00;98610.97;5055247;28;20457;-72
2021/12/17 14:23:20;;;;;;;10.73;5.53;;;;;;;6.35;100.00;98612.66;5057992;28;20703;-72
2021/12/17 14:26:00;;;;;;;11.23;6.03;;;;;;;6.23;100.00;98611.38;5055146;28;20099;-72
2021/12/17 14:28:30;;;;;;;11.30;5.45;;;;;;;6.21;100.00;98613.34;5042578;28;20024;-71
2021/12/17 14:31:00;;;;;;;10.27;4.25;;;;;;;6.12;100.00;98609.88;5056798;28;20388;-72
2021/12/17 14:33:33;;;;;;;9.27;5.10;;;;;;;6.23;100.00;98614.03;5057191;28;20045;-72
2021/12/17 14:36:04;;;;;;;11.63;5.50;;;;;;;6.29;100.00;98609.84;5053855;28;20034;-71
2021/12/17 14:38:53;;;;;;;10.13;4.95;;;;;;;6.31;100.00;98611.34;5058028;28;20115;-72